Time;durP1;ratioP1;P1;durP2;ratioP2;P2;SDS_P1;SDS_P2;PMS_P1;PMS_P2;Temp;Humidity;BMP_temperature;BMP_pressure;BME280_temperature;BME280_humidity;BME280_pressure;Samples;Min_cycle;Max_cycle;Signal;HPM_P1;HPM_P2
2023/04/26 00:00:46;;;;;;;1.65;1.30;;;;;;;;;;5021262;28;20477;-85
2023/04/26 00:03:41;;;;;;;2.58;1.98;;;;;;;;;;5021147;28;20385;-86
2023/04/26 00:09:01;;;;;;;2.53;1.80;;;;;;;;;;5018378;28;20034;-86
2023/04/26 00:11:30;;;;;;;2.13;1.92;;;;;;;;;;5020504;28;20021;-87
2023/04/26 00:14:08;;;;;;;4.13;2.13;;;;;;;;;;5020809;28;20065;-87
2023/04/26 00:16:36;;;;;;;4.80;1.98;;;;;;;;;;5021563;28;20025;-86
2023/04/26 00:19:04;;;;;;;3.25;1.70;;;;;;;;;;5019676;28;20030;-87
2023/04/26 00:21:35;;;;;;;3.10;1.52;;;;;;;;;;5017342;28;20058;-89
2023/04/26 00:24:10;;;;;;;4.28;2.00;;;;;;;;;;5023698;28;20096;-87
2023/04/26 00:26:35;;;;;;;1.75;1.60;;;;;;;;;;5026883;28;20022;-87
2023/04/26 00:29:03;;;;;;;3.90;1.77;;;;;;;;;;5024175;28;20493;-87
2023/04/26 00:31:33;;;;;;;3.00;1.55;;;;;;;;;;5020101;28;20034;-86
2023/04/26 00:34:01;;;;;;;2.30;1.73;;;;;;;;;;5019393;28;20022;-85
2023/04/26 00:36:34;;;;;;;3.03;1.75;;;;;;;;;;5020469;28;20040;-86
2023/04/26 00:42:02;;;;;;;1.38;1.15;;;;;;;;;;5027034;28;20504;-87
2023/04/26 00:44:35;;;;;;;1.90;1.27;;;;;;;;;;5019411;28;20033;-86
2023/04/26 00:47:03;;;;;;;3.03;1.98;;;;;;;;;;5027680;28;20021;-87
2023/04/26 00:49:43;;;;;;;4.10;2.25;;;;;;;;;;5024008;28;20052;-86
2023/04/26 00:52:18;;;;;;;4.15;1.33;;;;;;;;;;5023721;28;20025;-87
2023/04/26 00:54:46;;;;;;;2.97;1.55;;;;;;;;;;5018987;28;20036;-86
2023/04/26 00:57:12;;;;;;;7.13;1.75;;;;;;;;;;5020612;28;20061;-86
2023/04/26 01:00:07;;;;;;;1.88;1.33;;;;;;;;;;5018379;28;20445;-86
2023/04/26 01:02:50;;;;;;;2.28;1.63;;;;;;;;;;5017192;28;20041;-86
2023/04/26 01:05:19;;;;;;;4.90;1.90;;;;;;;;;;5021873;28;20041;-87
2023/04/26 01:07:52;;;;;;;1.45;1.02;;;;;;;;;;5017856;28;20065;-87
2023/04/26 01:10:22;;;;;;;3.78;1.60;;;;;;;;;;5039640;28;20030;-85
2023/04/26 01:13:15;;;;;;;2.78;1.77;;;;;;;;;;5019938;28;20076;-86
2023/04/26 01:16:00;;;;;;;3.25;2.33;;;;;;;;;;5020422;28;20104;-86
2023/04/26 01:18:47;;;;;;;;;;;;;;;;;;;;;
2023/04/26 01:21:27;;;;;;;3.53;1.92;;;;;;;;;;5020733;28;20038;-85
2023/04/26 01:23:53;;;;;;;2.25;1.40;;;;;;;;;;5022701;28;20048;-85
2023/04/26 01:26:31;;;;;;;4.05;2.05;;;;;;;;;;5021623;28;20481;-84
2023/04/26 01:29:02;;;;;;;3.28;2.05;;;;;;;;;;5019703;28;20038;-87
2023/04/26 01:31:31;;;;;;;2.20;1.48;;;;;;;;;;5023138;28;20136;-85
2023/04/26 01:34:21;;;;;;;2.90;1.48;;;;;;;;;;5020538;28;20033;-87
2023/04/26 01:36:59;;;;;;;;;;;;;;;;;;;;;
2023/04/26 01:39:27;;;;;;;2.05;1.08;;;;;;;;;;5018169;28;20434;-86
2023/04/26 01:41:57;;;;;;;3.05;1.98;;;;;;;;;;5036691;28;20033;-86
2023/04/26 01:44:51;;;;;;;1.40;1.15;;;;;;;;;;5020694;28;20033;-84
2023/04/26 01:47:36;;;;;;;2.28;1.60;;;;;;;;;;5018052;28;20153;-86
2023/04/26 01:50:15;;;;;;;1.70;1.15;;;;;;;;;;5020433;28;20033;-86
2023/04/26 01:52:43;;;;;;;2.15;1.45;;;;;;;;;;5017964;28;20556;-88
2023/04/26 01:55:09;;;;;;;2.28;1.63;;;;;;;;;;5019882;28;20072;-87
2023/04/26 01:58:09;;;;;;;2.35;1.58;;;;;;;;;;5022767;28;20025;-87
2023/04/26 02:00:42;;;;;;;2.67;1.70;;;;;;;;;;5023902;28;20038;-86
2023/04/26 02:03:23;;;;;;;2.63;1.63;;;;;;;;;;5024328;28;20512;-87
2023/04/26 02:06:11;;;;;;;2.10;1.63;;;;;;;;;;5022512;28;20033;-88
2023/04/26 02:08:53;;;;;;;2.17;1.33;;;;;;;;;;5020375;28;20400;-87
2023/04/26 02:11:50;;;;;;;2.10;1.27;;;;;;;;;;5022892;28;20104;-86
2023/04/26 02:14:45;;;;;;;1.65;1.17;;;;;;;;;;5018194;28;20022;-86
2023/04/26 02:18:00;;;;;;;2.65;1.58;;;;;;;;;;5015688;28;20053;-85
2023/04/26 02:20:43;;;;;;;3.83;1.88;;;;;;;;;;5022823;28;20108;-86
2023/04/26 02:23:11;;;;;;;1.70;1.40;;;;;;;;;;5021987;28;20034;-86
2023/04/26 02:25:49;;;;;;;1.70;1.00;;;;;;;;;;5025579;28;20044;-87
2023/04/26 02:28:17;;;;;;;3.42;1.40;;;;;;;;;;5022326;28;20045;-87
2023/04/26 02:30:51;;;;;;;3.15;1.80;;;;;;;;;;5023218;28;20038;-84
2023/04/26 02:33:16;;;;;;;1.67;1.30;;;;;;;;;;5020038;28;20037;-86
2023/04/26 02:35:47;;;;;;;3.45;2.10;;;;;;;;;;5025488;28;20144;-86
2023/04/26 02:38:16;;;;;;;2.50;1.65;;;;;;;;;;5035972;28;20030;-86
2023/04/26 02:44:01;;;;;;;2.28;1.38;;;;;;;;;;5019296;28;20092;-84
2023/04/26 02:46:37;;;;;;;2.30;1.77;;;;;;;;;;5017709;28;20052;-86
2023/04/26 02:49:08;;;;;;;2.15;1.55;;;;;;;;;;5018424;28;20485;-85
2023/04/26 02:51:40;;;;;;;2.58;1.85;;;;;;;;;;5025809;28;20086;-85
2023/04/26 02:54:06;;;;;;;3.08;1.85;;;;;;;;;;5019892;28;20120;-85
2023/04/26 02:56:31;;;;;;;3.35;2.25;;;;;;;;;;5026551;28;20541;-86
2023/04/26 02:58:57;;;;;;;3.65;2.42;;;;;;;;;;5020779;28;20031;-86
2023/04/26 03:01:41;;;;;;;2.15;1.45;;;;;;;;;;5026187;28;20033;-87
2023/04/26 03:04:09;;;;;;;3.17;1.40;;;;;;;;;;5018901;28;20098;-86
2023/04/26 03:06:55;;;;;;;4.35;2.40;;;;;;;;;;5027086;28;20393;-87
2023/04/26 03:09:33;;;;;;;2.67;1.98;;;;;;;;;;5023931;28;20028;-85
2023/04/26 03:12:08;;;;;;;1.77;1.10;;;;;;;;;;5027001;28;20065;-85
2023/04/26 03:14:34;;;;;;;3.75;1.98;;;;;;;;;;5018919;28;20040;-86
2023/04/26 03:17:02;;;;;;;2.13;1.35;;;;;;;;;;5026357;28;20030;-86
2023/04/26 03:19:31;;;;;;;4.03;2.33;;;;;;;;;;5021476;28;20022;-85
2023/04/26 03:22:05;;;;;;;2.00;1.47;;;;;;;;;;5019684;28;20057;-86
2023/04/26 03:24:33;;;;;;;2.60;1.65;;;;;;;;;;5020201;28;20046;-87
2023/04/26 03:27:07;;;;;;;3.05;2.17;;;;;;;;;;5018619;28;20025;-87
2023/04/26 03:29:42;;;;;;;2.75;2.05;;;;;;;;;;5020710;28;20511;-86
2023/04/26 03:32:15;;;;;;;3.92;2.20;;;;;;;;;;5020891;28;20022;-86
2023/04/26 03:34:52;;;;;;;2.67;1.65;;;;;;;;;;5021757;28;20053;-86
2023/04/26 03:37:18;;;;;;;2.17;1.92;;;;;;;;;;5021753;28;20025;-85
2023/04/26 03:39:43;;;;;;;3.83;1.58;;;;;;;;;;5024926;28;20101;-87
2023/04/26 03:42:28;;;;;;;2.53;1.98;;;;;;;;;;5022356;28;20053;-85
2023/04/26 03:45:08;;;;;;;2.38;1.70;;;;;;;;;;5014787;28;20029;-86
2023/04/26 03:47:34;;;;;;;2.97;2.30;;;;;;;;;;5028496;28;20029;-86
2023/04/26 03:50:09;;;;;;;3.13;2.20;;;;;;;;;;5023975;28;20433;-86
2023/04/26 03:52:41;;;;;;;2.63;1.75;;;;;;;;;;5020777;28;20033;-86
2023/04/26 03:55:16;;;;;;;3.67;2.30;;;;;;;;;;5019540;28;20029;-83
2023/04/26 03:57:47;;;;;;;4.13;2.20;;;;;;;;;;5025543;28;20049;-85
2023/04/26 04:00:18;;;;;;;3.85;2.55;;;;;;;;;;5020099;28;20056;-85
2023/04/26 04:02:43;;;;;;;4.30;1.92;;;;;;;;;;5022642;28;20044;-84
2023/04/26 04:05:09;;;;;;;3.53;2.05;;;;;;;;;;5017821;28;20025;-84
2023/04/26 04:07:35;;;;;;;3.60;2.25;;;;;;;;;;5018561;28;20049;-85
2023/04/26 04:10:00;;;;;;;4.35;2.65;;;;;;;;;;5018444;28;20026;-85
2023/04/26 04:12:26;;;;;;;5.20;3.33;;;;;;;;;;5019519;28;20029;-84
2023/04/26 04:14:51;;;;;;;3.33;2.50;;;;;;;;;;5022219;28;20113;-84
2023/04/26 04:17:17;;;;;;;5.10;2.95;;;;;;;;;;5021950;28;20041;-85
2023/04/26 04:19:44;;;;;;;5.00;2.78;;;;;;;;;;5019288;28;20037;-85
2023/04/26 04:22:09;;;;;;;4.22;3.00;;;;;;;;;;5023929;28;20028;-83
2023/04/26 04:24:35;;;;;;;13.85;5.07;;;;;;;;;;5019449;28;20389;-83
2023/04/26 04:27:02;;;;;;;14.63;6.68;;;;;;;;;;5020858;28;21603;-84
2023/04/26 04:29:27;;;;;;;7.10;3.95;;;;;;;;;;5016111;28;20097;-83
2023/04/26 04:31:53;;;;;;;15.18;5.18;;;;;;;;;;5019914;28;20116;-83
2023/04/26 04:34:18;;;;;;;9.70;6.18;;;;;;;;;;5021603;28;20100;-84
2023/04/26 04:36:44;;;;;;;6.65;4.38;;;;;;;;;;5021967;28;20081;-83
2023/04/26 04:39:14;;;;;;;8.20;4.47;;;;;;;;;;5021639;28;20028;-83
2023/04/26 04:41:46;;;;;;;6.47;3.38;;;;;;;;;;5021755;28;20044;-84
2023/04/26 04:44:14;;;;;;;6.45;3.10;;;;;;;;;;5021919;28;20419;-83
2023/04/26 04:46:40;;;;;;;6.53;3.20;;;;;;;;;;5023738;28;20052;-84
2023/04/26 04:49:09;;;;;;;5.88;3.45;;;;;;;;;;5027369;28;20025;-83
2023/04/26 04:51:35;;;;;;;7.40;4.25;;;;;;;;;;5022469;28;20026;-84
2023/04/26 04:54:12;;;;;;;8.40;4.63;;;;;;;;;;5021610;28;20040;-83
2023/04/26 04:56:38;;;;;;;10.57;4.43;;;;;;;;;;5021932;28;20025;-83
2023/04/26 04:59:17;;;;;;;12.85;5.95;;;;;;;;;;5077630;28;20430;-85
2023/04/26 05:01:42;;;;;;;11.43;5.35;;;;;;;;;;5073840;28;20032;-84
2023/04/26 05:04:08;;;;;;;8.98;4.35;;;;;;;;;;5077035;28;20025;-83
2023/04/26 05:06:33;;;;;;;8.68;4.22;;;;;;;;;;5077157;28;20036;-84
2023/04/26 05:09:00;;;;;;;9.23;4.82;;;;;;;;;;5079502;28;20052;-84
2023/04/26 05:11:25;;;;;;;8.80;4.47;;;;;;;;;;5074719;28;20020;-84
2023/04/26 05:13:51;;;;;;;9.73;3.75;;;;;;;;;;5071887;28;20021;-89
2023/04/26 05:16:16;;;;;;;10.40;5.15;;;;;;;;;;5076175;28;20476;-83
2023/04/26 05:18:42;;;;;;;10.85;5.15;;;;;;;;;;5077105;28;20480;-83
2023/04/26 05:21:07;;;;;;;7.25;4.35;;;;;;;;;;5080522;28;20032;-83
2023/04/26 05:23:33;;;;;;;9.70;5.22;;;;;;;;;;5079534;28;20044;-84
2023/04/26 05:26:06;;;;;;;11.55;6.10;;;;;;;;;;5075508;28;20381;-84
2023/04/26 05:28:33;;;;;;;10.85;5.40;;;;;;;;;;5076608;28;20062;-84
2023/04/26 05:31:00;;;;;;;7.72;4.47;;;;;;;;;;5078623;28;20037;-83
2023/04/26 05:33:27;;;;;;;9.82;4.57;;;;;;;;;;5075105;28;20027;-84
2023/04/26 05:35:53;;;;;;;6.20;3.67;;;;;;;;;;5079501;28;20021;-83
2023/04/26 05:38:19;;;;;;;6.07;3.15;;;;;;;;;;5073203;28;20473;-88
2023/04/26 05:40:47;;;;;;;9.95;4.65;;;;;;;;;;5075621;28;20032;-85
2023/04/26 05:43:12;;;;;;;9.48;4.97;;;;;;;;;;5076757;28;20021;-84
2023/04/26 05:45:38;;;;;;;9.50;5.03;;;;;;;;;;5074127;28;20035;-84
2023/04/26 05:48:04;;;;;;;10.50;4.60;;;;;;;;;;5074593;28;20020;-83
2023/04/26 05:50:30;;;;;;;8.95;4.80;;;;;;;;;;5069697;28;20048;-82
2023/04/26 05:52:55;;;;;;;9.40;4.93;;;;;;;;;;5073579;28;20060;-83
2023/04/26 05:55:21;;;;;;;7.55;5.00;;;;;;;;;;5074092;28;20029;-83
2023/04/26 05:57:46;;;;;;;7.47;4.20;;;;;;;;;;5073232;28;20049;-83
2023/04/26 06:00:12;;;;;;;7.13;3.47;;;;;;;;;;5073111;28;20043;-84
2023/04/26 06:02:38;;;;;;;13.60;4.00;;;;;;;;;;5074762;28;20032;-83
2023/04/26 06:05:05;;;;;;;8.82;4.22;;;;;;;;;;5067741;28;20078;-83
2023/04/26 06:07:31;;;;;;;3.97;2.47;;;;;;;;;;5072857;28;20099;-82
2023/04/26 06:09:56;;;;;;;4.45;2.47;;;;;;;;;;5065818;28;20435;-81
2023/04/26 06:12:22;;;;;;;4.70;2.60;;;;;;;;;;5053353;28;20025;-81
2023/04/26 06:14:47;;;;;;;4.80;2.85;;;;;;;;;;5054110;28;20029;-82
2023/04/26 06:17:13;;;;;;;2.50;1.50;;;;;;;;;;5060223;28;20583;-81
2023/04/26 06:19:38;;;;;;;3.45;1.77;;;;;;;;;;5061189;28;20032;-83
2023/04/26 06:22:04;;;;;;;3.38;2.03;;;;;;;;;;5060768;28;20032;-81
2023/04/26 06:24:29;;;;;;;2.60;1.58;;;;;;;;;;5060129;28;20032;-81
2023/04/26 06:26:55;;;;;;;1.83;1.48;;;;;;;;;;5053176;28;21670;-82
2023/04/26 06:29:21;;;;;;;3.20;2.05;;;;;;;;;;5051924;28;20021;-81
2023/04/26 06:31:46;;;;;;;2.30;1.67;;;;;;;;;;5053667;28;20036;-82
2023/04/26 06:34:11;;;;;;;2.85;1.92;;;;;;;;;;5060010;28;20075;-82
2023/04/26 06:36:37;;;;;;;4.55;1.13;;;;;;;;;;5057950;28;20322;-80
2023/04/26 06:39:02;;;;;;;3.72;2.13;;;;;;;;;;5052370;28;20067;-80
2023/04/26 06:41:28;;;;;;;1.95;1.45;;;;;;;;;;5052238;28;20029;-80
2023/04/26 06:43:54;;;;;;;3.20;1.75;;;;;;;;;;5050282;28;20031;-82
2023/04/26 06:46:20;;;;;;;2.00;1.48;;;;;;;;;;5056019;28;20051;-82
2023/04/26 06:48:45;;;;;;;4.93;2.17;;;;;;;;;;5064003;28;20028;-83
2023/04/26 06:51:11;;;;;;;3.35;2.15;;;;;;;;;;5062443;28;20060;-82
2023/04/26 06:53:36;;;;;;;2.92;1.58;;;;;;;;;;5056534;28;20024;-82
2023/04/26 06:56:02;;;;;;;4.25;2.00;;;;;;;;;;5053643;28;20035;-81
2023/04/26 06:58:28;;;;;;;3.00;1.65;;;;;;;;;;5054869;28;20049;-83
2023/04/26 07:00:53;;;;;;;3.70;1.73;;;;;;;;;;5053085;28;20090;-82
2023/04/26 07:03:19;;;;;;;4.75;1.75;;;;;;;;;;5063711;28;20028;-81
2023/04/26 07:05:44;;;;;;;2.90;1.95;;;;;;;;;;5055304;28;20502;-81
2023/04/26 07:08:10;;;;;;;4.47;2.40;;;;;;;;;;5056791;28;20020;-80
2023/04/26 07:10:38;;;;;;;3.15;1.98;;;;;;;;;;5059744;28;20024;-80
2023/04/26 07:13:03;;;;;;;2.00;1.83;;;;;;;;;;5054378;28;20056;-80
2023/04/26 07:15:30;;;;;;;2.58;1.95;;;;;;;;;;5058183;28;20511;-81
2023/04/26 07:17:55;;;;;;;2.42;1.63;;;;;;;;;;5053154;28;20493;-82
2023/04/26 07:20:21;;;;;;;2.13;1.35;;;;;;;;;;5058583;28;20025;-81
2023/04/26 07:22:47;;;;;;;2.60;1.58;;;;;;;;;;5049339;28;20021;-79
2023/04/26 07:25:13;;;;;;;1.77;1.40;;;;;;;;;;5051704;28;20033;-83
2023/04/26 07:27:38;;;;;;;1.23;0.90;;;;;;;;;;5062382;28;20068;-81
2023/04/26 07:30:04;;;;;;;2.47;1.50;;;;;;;;;;5063290;28;20044;-82
2023/04/26 07:32:30;;;;;;;1.13;1.02;;;;;;;;;;5056497;28;20036;-84
2023/04/26 07:34:56;;;;;;;2.78;1.83;;;;;;;;;;5058443;28;20025;-82
2023/04/26 07:37:21;;;;;;;2.72;1.40;;;;;;;;;;5057979;28;20112;-84
2023/04/26 07:39:47;;;;;;;2.05;1.27;;;;;;;;;;5059081;28;20021;-83
2023/04/26 07:42:12;;;;;;;1.80;1.25;;;;;;;;;;5053838;28;20093;-81
2023/04/26 07:44:38;;;;;;;0.65;0.57;;;;;;;;;;5054896;28;20021;-81
2023/04/26 07:47:03;;;;;;;1.67;1.20;;;;;;;;;;5057428;28;20074;-82
2023/04/26 07:49:28;;;;;;;1.55;1.42;;;;;;;;;;5062443;28;20201;-82
2023/04/26 07:51:55;;;;;;;1.48;0.95;;;;;;;;;;5050352;28;20031;-81
2023/04/26 07:54:20;;;;;;;2.35;1.08;;;;;;;;;;5050234;28;20033;-81
2023/04/26 07:56:46;;;;;;;1.25;1.15;;;;;;;;;;5055517;28;20027;-83
2023/04/26 07:59:11;;;;;;;2.30;1.45;;;;;;;;;;5060267;28;20048;-82
2023/04/26 08:01:37;;;;;;;1.55;1.25;;;;;;;;;;5058793;28;20024;-81
2023/04/26 08:04:04;;;;;;;1.52;0.95;;;;;;;;;;5050642;28;20029;-83
2023/04/26 08:06:30;;;;;;;1.85;1.35;;;;;;;;;;5053576;28;20079;-87
2023/04/26 08:08:55;;;;;;;2.38;1.50;;;;;;;;;;5063712;28;20036;-85
2023/04/26 08:11:21;;;;;;;2.15;1.48;;;;;;;;;;5063085;28;20392;-82
2023/04/26 08:13:46;;;;;;;2.15;1.35;;;;;;;;;;5049518;28;20020;-83
2023/04/26 08:16:12;;;;;;;1.60;1.20;;;;;;;;;;5057817;28;20519;-81
2023/04/26 08:18:38;;;;;;;1.80;1.38;;;;;;;;;;5058043;28;20033;-85
2023/04/26 08:21:03;;;;;;;2.28;1.88;;;;;;;;;;5055557;28;20041;-83
2023/04/26 08:23:34;;;;;;;2.97;2.00;;;;;;;;;;5056237;28;20024;-83
2023/04/26 08:26:00;;;;;;;1.38;0.82;;;;;;;;;;5057962;28;20074;-83
2023/04/26 08:28:25;;;;;;;1.55;1.08;;;;;;;;;;5053914;28;20017;-84
2023/04/26 08:30:51;;;;;;;2.08;1.27;;;;;;;;;;5056597;28;20032;-82
2023/04/26 08:33:17;;;;;;;1.70;0.77;;;;;;;;;;5061971;28;20039;-83
2023/04/26 08:35:42;;;;;;;1.92;1.15;;;;;;;;;;5061302;28;20074;-81
2023/04/26 08:38:07;;;;;;;1.58;1.13;;;;;;;;;;5053149;28;20025;-80
2023/04/26 08:40:35;;;;;;;2.17;1.38;;;;;;;;;;5046767;28;20107;-80
2023/04/26 08:43:00;;;;;;;0.68;0.52;;;;;;;;;;5057211;28;20044;-78
2023/04/26 08:45:25;;;;;;;1.83;1.35;;;;;;;;;;5055846;28;20107;-79
2023/04/26 08:48:07;;;;;;;2.63;1.15;;;;;;;;;;5061846;28;20048;-80
2023/04/26 08:50:35;;;;;;;1.77;1.67;;;;;;;;;;5052233;28;20074;-83
2023/04/26 08:53:00;;;;;;;2.30;1.35;;;;;;;;;;5056380;28;20404;-83
2023/04/26 08:55:27;;;;;;;2.65;1.50;;;;;;;;;;5057766;28;20031;-82
2023/04/26 08:57:52;;;;;;;2.47;2.05;;;;;;;;;;5054337;28;20431;-84
2023/04/26 09:00:18;;;;;;;3.25;1.92;;;;;;;;;;5056798;28;20021;-82
2023/04/26 09:02:51;;;;;;;1.00;0.90;;;;;;;;;;5050179;28;20037;-82
2023/04/26 09:05:22;;;;;;;2.13;1.30;;;;;;;;;;5055670;28;20024;-82
2023/04/26 09:07:49;;;;;;;3.17;1.48;;;;;;;;;;5056951;28;20314;-81
2023/04/26 09:10:22;;;;;;;1.77;1.38;;;;;;;;;;5059500;28;20025;-79
2023/04/26 09:12:54;;;;;;;2.90;1.63;;;;;;;;;;5056306;28;20427;-82
2023/04/26 09:15:22;;;;;;;1.85;1.10;;;;;;;;;;5066393;28;20093;-82
2023/04/26 09:17:48;;;;;;;1.90;1.45;;;;;;;;;;5053778;28;20060;-81
2023/04/26 09:20:29;;;;;;;1.40;1.02;;;;;;;;;;5053367;28;20035;-81
2023/04/26 09:23:05;;;;;;;1.35;1.23;;;;;;;;;;5052289;28;20104;-83
2023/04/26 09:25:32;;;;;;;2.60;1.75;;;;;;;;;;5053990;28;20447;-82
2023/04/26 09:27:59;;;;;;;1.30;1.08;;;;;;;;;;5057588;28;20104;-82
2023/04/26 09:30:26;;;;;;;9.75;4.40;;;;;;;;;;5062919;28;20035;-82
2023/04/26 09:32:57;;;;;;;5.25;2.75;;;;;;;;;;5063330;28;20383;-82
2023/04/26 09:35:26;;;;;;;1.80;1.15;;;;;;;;;;5047819;28;20043;-82
2023/04/26 09:38:09;;;;;;;2.70;1.20;;;;;;;;;;5051047;28;20071;-83
2023/04/26 09:40:40;;;;;;;1.25;1.00;;;;;;;;;;5057554;28;20365;-80
2023/04/26 09:43:19;;;;;;;1.45;1.27;;;;;;;;;;5057978;28;20426;-84
2023/04/26 09:45:51;;;;;;;1.42;1.20;;;;;;;;;;5064783;28;20025;-82
2023/04/26 09:48:29;;;;;;;2.72;1.40;;;;;;;;;;5068093;28;20028;-82
2023/04/26 09:51:08;;;;;;;1.08;0.88;;;;;;;;;;5072075;28;20025;-82
2023/04/26 09:53:47;;;;;;;2.97;1.93;;;;;;;;;;5060934;28;20025;-82
2023/04/26 09:56:19;;;;;;;2.37;1.40;;;;;;;;;;5067234;28;20086;-81
2023/04/26 09:58:45;;;;;;;1.38;0.95;;;;;;;;;;5066893;28;20052;-82
2023/04/26 10:01:13;;;;;;;2.25;1.70;;;;;;;;;;5060140;28;20362;-83
2023/04/26 10:03:41;;;;;;;2.35;1.90;;;;;;;;;;5055258;28;20029;-85
2023/04/26 10:06:07;;;;;;;3.88;1.42;;;;;;;;;;5055425;28;20056;-84
2023/04/26 10:08:33;;;;;;;1.60;1.00;;;;;;;;;;5055918;28;20048;-84
2023/04/26 10:11:00;;;;;;;1.25;1.10;;;;;;;;;;5058996;28;20056;-83
2023/04/26 10:13:26;;;;;;;1.58;0.55;;;;;;;;;;5066671;28;20476;-85
2023/04/26 10:15:52;;;;;;;2.00;1.58;;;;;;;;;;5061875;28;20052;-83
2023/04/26 10:18:18;;;;;;;1.75;1.33;;;;;;;;;;5063949;28;20043;-86
2023/04/26 10:20:47;;;;;;;2.35;1.52;;;;;;;;;;5056449;28;20021;-84
2023/04/26 10:23:24;;;;;;;2.22;1.25;;;;;;;;;;5052567;28;20025;-85
2023/04/26 10:25:50;;;;;;;1.80;1.30;;;;;;;;;;5062171;28;20040;-83
2023/04/26 10:28:17;;;;;;;0.88;0.80;;;;;;;;;;5060399;28;20075;-80
2023/04/26 10:30:55;;;;;;;1.67;0.93;;;;;;;;;;5058891;28;20603;-82
2023/04/26 10:33:22;;;;;;;0.57;0.52;;;;;;;;;;5057909;28;20032;-81
2023/04/26 10:36:06;;;;;;;2.85;1.30;;;;;;;;;;5056714;28;20021;-83
2023/04/26 10:38:32;;;;;;;2.08;1.27;;;;;;;;;;5059903;28;20071;-85
2023/04/26 10:41:31;;;;;;;1.40;1.00;;;;;;;;;;5058377;28;20043;-85
2023/04/26 10:44:00;;;;;;;1.63;0.65;;;;;;;;;;5060967;28;20020;-81
2023/04/26 10:46:34;;;;;;;1.27;0.80;;;;;;;;;;5062248;28;20124;-83
2023/04/26 10:49:22;;;;;;;1.52;1.10;;;;;;;;;;5066302;28;20035;-82
2023/04/26 10:52:10;;;;;;;1.58;0.90;;;;;;;;;;5056340;28;20035;-85
2023/04/26 10:54:49;;;;;;;1.02;0.73;;;;;;;;;;5053701;28;20020;-83
2023/04/26 10:57:15;;;;;;;1.08;1.00;;;;;;;;;;5063329;28;20133;-82
2023/04/26 11:00:13;;;;;;;0.85;0.52;;;;;;;;;;5065276;28;20037;-84
2023/04/26 11:03:01;;;;;;;1.45;0.90;;;;;;;;;;5058592;28;20058;-84
2023/04/26 11:05:54;;;;;;;1.02;0.88;;;;;;;;;;5062530;28;20027;-82
2023/04/26 11:08:24;;;;;;;0.80;0.80;;;;;;;;;;5053082;28;20021;-82
2023/04/26 11:10:55;;;;;;;2.42;0.80;;;;;;;;;;5058578;28;20028;-82
2023/04/26 11:13:20;;;;;;;0.57;0.57;;;;;;;;;;5061726;28;20187;-84
2023/04/26 11:15:46;;;;;;;0.82;0.82;;;;;;;;;;5063064;28;20167;-83
2023/04/26 11:18:12;;;;;;;1.10;0.90;;;;;;;;;;5058744;28;20035;-81
2023/04/26 11:20:37;;;;;;;1.83;1.10;;;;;;;;;;5054948;28;20497;-84
2023/04/26 11:23:06;;;;;;;0.85;0.80;;;;;;;;;;5054936;28;20500;-83
2023/04/26 11:25:32;;;;;;;1.27;0.70;;;;;;;;;;5051795;28;20037;-83
2023/04/26 11:28:02;;;;;;;1.08;0.90;;;;;;;;;;5062471;28;20025;-81
2023/04/26 11:30:29;;;;;;;2.17;0.77;;;;;;;;;;5060192;28;20075;-84
2023/04/26 11:32:54;;;;;;;0.98;0.88;;;;;;;;;;5063913;28;20119;-84
2023/04/26 11:35:22;;;;;;;1.88;1.33;;;;;;;;;;5067041;28;20052;-83
2023/04/26 11:37:50;;;;;;;4.22;1.25;;;;;;;;;;5063459;28;20484;-82
2023/04/26 11:40:16;;;;;;;1.80;1.38;;;;;;;;;;5062597;28;20033;-83
2023/04/26 11:42:45;;;;;;;1.08;0.98;;;;;;;;;;5061381;28;20078;-84
2023/04/26 11:45:11;;;;;;;0.73;0.73;;;;;;;;;;5061808;28;20050;-83
2023/04/26 11:47:37;;;;;;;1.00;0.82;;;;;;;;;;5061777;28;20082;-84
2023/04/26 11:50:03;;;;;;;1.08;0.82;;;;;;;;;;5059711;28;20424;-84
2023/04/26 11:52:29;;;;;;;0.80;0.80;;;;;;;;;;5065010;28;20025;-80
2023/04/26 11:55:03;;;;;;;1.30;1.10;;;;;;;;;;5061215;28;20449;-81
2023/04/26 11:57:31;;;;;;;1.25;0.70;;;;;;;;;;5058201;28;20044;-82
2023/04/26 12:00:13;;;;;;;2.60;1.58;;;;;;;;;;5059402;28;20087;-83
2023/04/26 12:02:43;;;;;;;0.90;0.85;;;;;;;;;;5059589;28;20022;-82
2023/04/26 12:05:09;;;;;;;2.00;1.23;;;;;;;;;;5060089;28;20078;-84
2023/04/26 12:07:39;;;;;;;0.90;0.70;;;;;;;;;;5059346;28;20447;-83
2023/04/26 12:10:15;;;;;;;3.88;1.73;;;;;;;;;;5061684;28;20105;-83
2023/04/26 12:12:49;;;;;;;0.93;0.73;;;;;;;;;;5058486;28;20025;-84
2023/04/26 12:15:14;;;;;;;3.30;1.00;;;;;;;;;;5066259;28;20128;-83
2023/04/26 12:17:54;;;;;;;1.70;1.05;;;;;;;;;;5060471;28;20123;-83
2023/04/26 12:20:30;;;;;;;1.63;0.90;;;;;;;;;;5054623;28;20585;-85
2023/04/26 12:23:08;;;;;;;2.55;1.15;;;;;;;;;;5061702;28;20059;-84
2023/04/26 12:25:37;;;;;;;1.25;0.98;;;;;;;;;;5057830;28;20113;-84
2023/04/26 12:28:10;;;;;;;1.60;1.17;;;;;;;;;;5060974;28;20029;-80
2023/04/26 12:30:38;;;;;;;0.60;0.47;;;;;;;;;;5055731;28;20075;-84
2023/04/26 12:33:03;;;;;;;1.52;0.93;;;;;;;;;;5061273;28;20103;-83
2023/04/26 12:35:29;;;;;;;1.58;1.00;;;;;;;;;;5055164;28;20127;-83
2023/04/26 12:37:55;;;;;;;2.08;1.10;;;;;;;;;;5055327;28;20029;-83
2023/04/26 12:40:24;;;;;;;1.08;0.80;;;;;;;;;;5061356;28;20029;-82
2023/04/26 12:42:50;;;;;;;2.35;1.13;;;;;;;;;;5056457;28;20100;-84
2023/04/26 12:45:17;;;;;;;3.28;1.30;;;;;;;;;;5058906;28;20108;-83
2023/04/26 12:47:44;;;;;;;2.50;0.80;;;;;;;;;;5066257;28;20020;-84
2023/04/26 12:50:11;;;;;;;2.53;0.82;;;;;;;;;;5056150;28;20036;-83
2023/04/26 12:52:38;;;;;;;1.35;0.77;;;;;;;;;;5065317;28;20032;-82
2023/04/26 12:55:06;;;;;;;2.65;1.02;;;;;;;;;;5059177;28;20036;-83
2023/04/26 12:57:31;;;;;;;1.98;1.27;;;;;;;;;;5057743;28;20499;-80
2023/04/26 12:59:57;;;;;;;0.60;0.60;;;;;;;;;;5057082;28;20025;-83
2023/04/26 13:02:23;;;;;;;0.90;0.85;;;;;;;;;;5052414;28;20070;-84
2023/04/26 13:04:48;;;;;;;1.23;0.90;;;;;;;;;;5054975;28;20025;-86
2023/04/26 13:07:15;;;;;;;1.75;1.15;;;;;;;;;;5060965;28;20369;-84
2023/04/26 13:09:40;;;;;;;0.82;0.70;;;;;;;;;;5053111;28;20060;-81
2023/04/26 13:12:06;;;;;;;2.47;1.35;;;;;;;;;;5050371;28;20057;-84
2023/04/26 13:14:34;;;;;;;1.13;1.00;;;;;;;;;;5057794;28;20611;-83
2023/04/26 13:17:09;;;;;;;2.20;1.30;;;;;;;;;;5061114;28;20424;-82
2023/04/26 13:19:43;;;;;;;1.35;0.93;;;;;;;;;;5064802;28;20028;-83
2023/04/26 13:22:15;;;;;;;3.15;1.38;;;;;;;;;;5058646;28;20032;-86
2023/04/26 13:24:40;;;;;;;2.15;1.13;;;;;;;;;;5063561;28;20032;-84
2023/04/26 13:27:06;;;;;;;1.58;1.35;;;;;;;;;;5058861;28;20028;-84
2023/04/26 13:29:39;;;;;;;1.10;0.77;;;;;;;;;;5058179;28;20021;-84
2023/04/26 13:32:05;;;;;;;1.83;1.25;;;;;;;;;;5056868;28;20032;-83
2023/04/26 13:34:46;;;;;;;1.13;1.00;;;;;;;;;;5057680;28;20106;-82
2023/04/26 13:37:16;;;;;;;1.63;1.13;;;;;;;;;;5061907;28;20445;-81
2023/04/26 13:39:47;;;;;;;2.17;1.25;;;;;;;;;;5059485;28;20041;-87
2023/04/26 13:42:16;;;;;;;2.50;1.52;;;;;;;;;;5060424;28;20041;-83
2023/04/26 13:44:47;;;;;;;1.73;1.47;;;;;;;;;;5067178;28;20108;-88
2023/04/26 13:47:13;;;;;;;1.65;0.98;;;;;;;;;;5055508;28;20033;-85
2023/04/26 13:49:43;;;;;;;2.55;1.60;;;;;;;;;;5064536;28;20024;-84
2023/04/26 13:52:12;;;;;;;1.95;1.23;;;;;;;;;;5058807;28;20077;-84
2023/04/26 13:54:40;;;;;;;3.13;2.15;;;;;;;;;;5053478;28;20555;-85
2023/04/26 13:57:18;;;;;;;1.50;1.05;;;;;;;;;;5059918;28;20108;-86
2023/04/26 13:59:50;;;;;;;1.75;1.42;;;;;;;;;;5061562;28;20135;-83
2023/04/26 14:02:15;;;;;;;2.38;1.52;;;;;;;;;;5055419;28;20091;-81
2023/04/26 14:04:41;;;;;;;3.38;2.15;;;;;;;;;;5061259;28;20040;-83
2023/04/26 14:07:17;;;;;;;2.50;1.45;;;;;;;;;;5061022;28;20133;-83
2023/04/26 14:09:42;;;;;;;3.83;2.42;;;;;;;;;;5062943;28;20031;-82
2023/04/26 14:12:11;;;;;;;2.45;1.65;;;;;;;;;;5057627;28;20084;-83
2023/04/26 14:14:55;;;;;;;2.90;1.98;;;;;;;;;;5060584;28;20037;-85
2023/04/26 14:17:24;;;;;;;3.33;1.75;;;;;;;;;;5055113;28;20067;-84
2023/04/26 14:19:50;;;;;;;2.10;1.80;;;;;;;;;;5053772;28;20067;-84
2023/04/26 14:22:18;;;;;;;1.50;1.00;;;;;;;;;;5088301;28;20039;-88
2023/04/26 14:24:43;;;;;;;3.58;1.90;;;;;;;;;;5065099;28;20028;-86
2023/04/26 14:27:09;;;;;;;4.13;2.20;;;;;;;;;;5060499;28;20045;-81
2023/04/26 14:29:34;;;;;;;3.17;1.88;;;;;;;;;;5057829;28;20025;-83
2023/04/26 14:32:00;;;;;;;3.60;2.25;;;;;;;;;;5056004;28;20062;-83
2023/04/26 14:34:26;;;;;;;5.45;3.10;;;;;;;;;;5053720;28;20021;-82
2023/04/26 14:36:51;;;;;;;9.70;4.43;;;;;;;;;;5051792;28;20032;-83
2023/04/26 14:39:16;;;;;;;12.60;3.95;;;;;;;;;;5056598;28;20154;-82
2023/04/26 14:41:42;;;;;;;7.65;2.88;;;;;;;;;;5053083;28;20116;-83
2023/04/26 14:44:07;;;;;;;5.20;2.97;;;;;;;;;;5055939;28;20047;-82
2023/04/26 14:46:34;;;;;;;2.88;2.50;;;;;;;;;;5057199;28;20171;-84
2023/04/26 14:49:00;;;;;;;6.03;3.88;;;;;;;;;;5057528;28;20085;-82
2023/04/26 14:51:26;;;;;;;2.45;1.70;;;;;;;;;;5050914;28;20127;-82
2023/04/26 14:53:51;;;;;;;5.53;2.67;;;;;;;;;;5058844;28;20027;-81
2023/04/26 14:56:17;;;;;;;3.75;1.55;;;;;;;;;;5057684;28;20039;-81
2023/04/26 14:58:42;;;;;;;3.00;1.88;;;;;;;;;;5054971;28;20076;-82
2023/04/26 15:01:08;;;;;;;4.22;2.13;;;;;;;;;;5063694;28;20036;-80
2023/04/26 15:03:33;;;;;;;3.30;2.42;;;;;;;;;;5054517;28;20043;-84
2023/04/26 15:05:58;;;;;;;2.70;2.35;;;;;;;;;;5058456;28;20036;-82
2023/04/26 15:08:25;;;;;;;2.40;2.08;;;;;;;;;;5049439;28;20468;-81
2023/04/26 15:10:50;;;;;;;3.53;2.63;;;;;;;;;;5058087;28;20031;-80